createdAt,value
2017-11-29T00:00:20.847Z,2.13
2017-11-29T00:02:49.390Z,2.00
2017-11-29T00:05:16.917Z,2.40
2017-11-29T00:07:44.403Z,1.67
2017-11-29T00:10:12.168Z,2.27
2017-11-29T00:12:39.948Z,1.50
2017-11-29T00:15:08.539Z,1.40
2017-11-29T00:17:36.097Z,1.40
2017-11-29T00:20:04.393Z,1.43
2017-11-29T00:22:32.478Z,1.80
2017-11-29T00:25:00.051Z,1.30
2017-11-29T00:27:27.685Z,1.30
2017-11-29T00:29:55.200Z,2.33
2017-11-29T00:32:22.700Z,2.10
2017-11-29T00:34:50.202Z,2.10
2017-11-29T00:37:17.758Z,1.80
2017-11-29T00:39:45.563Z,1.80
2017-11-29T00:42:13.827Z,3.00
2017-11-29T00:44:42.103Z,2.67
2017-11-29T00:47:10.382Z,2.10
2017-11-29T00:49:38.661Z,2.53
2017-11-29T00:52:07.760Z,2.43
2017-11-29T00:54:36.306Z,2.53
2017-11-29T00:57:04.077Z,1.90
2017-11-29T00:59:31.826Z,2.50
2017-11-29T01:01:59.329Z,1.70
2017-11-29T01:04:27.615Z,1.73
2017-11-29T01:06:55.117Z,1.43
2017-11-29T01:09:22.961Z,1.50
2017-11-29T01:11:50.518Z,1.00
2017-11-29T01:14:18.065Z,1.30
2017-11-29T01:16:45.638Z,1.20
2017-11-29T01:19:13.208Z,1.40
2017-11-29T01:21:40.714Z,1.50
2017-11-29T01:24:09.287Z,1.60
2017-11-29T01:26:37.139Z,1.70
2017-11-29T01:29:04.646Z,2.50
2017-11-29T01:31:33.014Z,2.57
2017-11-29T01:34:01.316Z,2.30
2017-11-29T01:36:28.814Z,2.10
2017-11-29T01:38:56.302Z,1.80
2017-11-29T01:41:23.817Z,1.80
2017-11-29T01:43:51.661Z,1.57
2017-11-29T01:46:19.158Z,1.00
2017-11-29T01:48:46.670Z,1.73
2017-11-29T01:51:14.390Z,2.03
2017-11-29T01:53:43.368Z,1.63
2017-11-29T01:56:11.230Z,1.90
2017-11-29T01:58:38.724Z,1.90
2017-11-29T02:01:07.251Z,1.23
2017-11-29T02:03:34.749Z,1.67
2017-11-29T02:06:03.725Z,1.90
2017-11-29T02:08:31.549Z,1.87
2017-11-29T02:10:59.379Z,2.67
2017-11-29T02:13:28.920Z,2.80
2017-11-29T02:15:56.448Z,3.30
2017-11-29T02:18:23.942Z,4.17
2017-11-29T02:20:51.460Z,4.87
2017-11-29T02:23:20.075Z,4.80
2017-11-29T02:25:47.569Z,3.80
2017-11-29T02:28:15.320Z,4.00
2017-11-29T02:30:42.837Z,3.43
2017-11-29T02:33:10.688Z,2.60
2017-11-29T02:35:38.538Z,2.33
2017-11-29T02:38:06.818Z,2.27
2017-11-29T02:40:47.426Z,1.70
2017-11-29T02:43:14.923Z,2.00
2017-11-29T02:45:42.798Z,1.50
2017-11-29T02:48:10.288Z,1.70
2017-11-29T02:50:38.071Z,1.40
2017-11-29T02:53:05.599Z,1.73
2017-11-29T02:55:33.111Z,2.13
2017-11-29T02:58:00.957Z,1.57
2017-11-29T03:00:28.817Z,2.20
2017-11-29T03:02:57.056Z,1.40
2017-11-29T03:05:24.583Z,1.70
2017-11-29T03:07:52.086Z,1.63
2017-11-29T03:10:19.602Z,1.30
2017-11-29T03:12:47.096Z,1.43
2017-11-29T03:15:14.614Z,1.77
2017-11-29T03:17:42.129Z,1.70
2017-11-29T03:20:09.648Z,1.20
2017-11-29T03:22:37.942Z,1.13
2017-11-29T03:25:05.434Z,1.20
2017-11-29T03:27:32.956Z,1.70
2017-11-29T03:30:00.467Z,1.43
2017-11-29T03:32:27.976Z,1.50
2017-11-29T03:34:55.770Z,1.30
2017-11-29T03:37:24.542Z,1.60
2017-11-29T03:39:52.047Z,1.50
2017-11-29T03:42:20.390Z,1.50
2017-11-29T03:44:47.909Z,1.40
2017-11-29T03:47:15.412Z,1.70
2017-11-29T03:49:43.204Z,1.50
2017-11-29T03:52:11.780Z,1.97
2017-11-29T03:54:39.303Z,1.33
2017-11-29T03:57:06.850Z,1.33
2017-11-29T03:59:34.361Z,1.63
2017-11-29T04:02:01.870Z,2.20
2017-11-29T04:04:29.397Z,2.50
2017-11-29T04:06:57.893Z,2.00
2017-11-29T04:09:25.401Z,2.07
2017-11-29T04:11:52.907Z,1.50
2017-11-29T04:14:21.183Z,2.80
2017-11-29T04:16:49.798Z,2.37
2017-11-29T04:19:17.324Z,2.00
2017-11-29T04:21:45.114Z,2.60
2017-11-29T04:24:12.662Z,3.63
2017-11-29T04:26:40.548Z,2.17
2017-11-29T04:29:08.044Z,2.07
2017-11-29T04:31:36.344Z,2.70
2017-11-29T04:34:04.708Z,2.30
2017-11-29T04:36:33.001Z,1.60
2017-11-29T04:39:02.173Z,2.50
2017-11-29T04:41:29.941Z,1.90
2017-11-29T04:43:58.236Z,2.40
2017-11-29T04:46:25.762Z,1.70
2017-11-29T04:48:53.521Z,1.70
2017-11-29T04:51:21.767Z,2.57
2017-11-29T04:53:49.308Z,2.73
2017-11-29T04:56:16.815Z,2.20
2017-11-29T04:58:44.330Z,2.40
2017-11-29T05:01:12.446Z,3.10
2017-11-29T05:03:40.197Z,2.50
2017-11-29T05:06:08.143Z,3.33
2017-11-29T05:08:36.373Z,3.77
2017-11-29T05:11:05.338Z,3.40
2017-11-29T05:13:33.728Z,4.97
2017-11-29T05:16:01.995Z,4.73
2017-11-29T05:18:29.485Z,6.63
2017-11-29T05:20:57.288Z,5.60
2017-11-29T05:23:24.820Z,5.53
2017-11-29T05:25:53.264Z,7.10
2017-11-29T05:28:20.999Z,5.87
2017-11-29T05:30:48.515Z,6.77
2017-11-29T05:33:16.101Z,6.70
2017-11-29T05:35:44.071Z,8.47
2017-11-29T05:38:12.276Z,7.93
2017-11-29T05:40:40.725Z,8.13
2017-11-29T05:43:08.443Z,9.90
2017-11-29T05:45:35.987Z,10.40
2017-11-29T05:48:03.484Z,11.07
2017-11-29T05:50:31.034Z,10.90
2017-11-29T05:52:58.606Z,10.33
2017-11-29T05:55:26.131Z,9.67
2017-11-29T05:57:54.397Z,10.43
2017-11-29T06:00:22.143Z,10.57
2017-11-29T06:02:49.721Z,10.03
2017-11-29T06:05:17.229Z,11.60
2017-11-29T06:07:45.012Z,12.50
2017-11-29T06:10:13.258Z,10.23
2017-11-29T06:12:40.771Z,9.30
2017-11-29T06:15:08.298Z,10.43
2017-11-29T06:17:35.805Z,8.83
2017-11-29T06:20:04.135Z,8.97
2017-11-29T06:22:32.709Z,7.87
2017-11-29T06:25:00.227Z,8.57
2017-11-29T06:27:28.496Z,8.33
2017-11-29T06:29:56.786Z,10.17
2017-11-29T06:32:24.309Z,10.83
2017-11-29T06:34:51.817Z,10.73
2017-11-29T06:37:19.323Z,12.87
2017-11-29T06:39:46.841Z,12.47
2017-11-29T06:42:14.644Z,13.30
2017-11-29T06:44:42.174Z,11.83
2017-11-29T06:47:10.261Z,10.53
2017-11-29T06:49:37.757Z,10.40
2017-11-29T06:52:06.089Z,10.13
2017-11-29T06:54:33.610Z,10.30
2017-11-29T06:57:01.869Z,10.40
2017-11-29T06:59:30.152Z,11.33
2017-11-29T07:01:57.692Z,13.00
2017-11-29T07:04:25.987Z,14.37
2017-11-29T07:06:54.246Z,14.17
2017-11-29T07:09:22.572Z,14.43
2017-11-29T07:11:50.085Z,16.10
2017-11-29T07:14:17.628Z,16.07
2017-11-29T07:16:45.147Z,15.47
2017-11-29T07:19:12.664Z,12.20
2017-11-29T07:21:40.939Z,12.33
2017-11-29T07:24:09.219Z,10.10
2017-11-29T07:26:36.736Z,11.30
2017-11-29T07:29:04.282Z,10.50
2017-11-29T07:31:32.591Z,10.80
2017-11-29T07:34:00.124Z,12.13
2017-11-29T07:36:27.607Z,12.30
2017-11-29T07:38:55.105Z,10.70
2017-11-29T07:41:22.648Z,12.93
2017-11-29T07:43:50.215Z,11.80
2017-11-29T07:46:17.724Z,11.60
2017-11-29T07:48:45.222Z,10.30
2017-11-29T07:51:13.689Z,10.00
2017-11-29T07:53:42.696Z,12.30
2017-11-29T07:56:10.215Z,10.70
2017-11-29T07:58:37.746Z,12.67
2017-11-29T08:01:05.239Z,12.53
2017-11-29T08:03:33.697Z,11.43
2017-11-29T08:06:01.969Z,12.73
2017-11-29T08:08:29.473Z,12.63
2017-11-29T08:10:57.756Z,13.70
2017-11-29T08:13:26.863Z,15.17
2017-11-29T08:15:54.376Z,14.03
2017-11-29T08:18:21.876Z,13.60
2017-11-29T08:20:49.387Z,14.20
2017-11-29T08:23:16.908Z,16.17
2017-11-29T08:25:44.417Z,15.80
2017-11-29T08:28:11.944Z,14.40
2017-11-29T08:30:39.449Z,16.53
2017-11-29T08:33:07.731Z,15.47
2017-11-29T08:35:36.010Z,15.73
2017-11-29T08:38:03.530Z,15.70
2017-11-29T08:40:31.377Z,17.23
2017-11-29T08:42:58.860Z,18.43
2017-11-29T08:45:26.404Z,16.67
2017-11-29T08:47:53.893Z,20.70
2017-11-29T08:50:22.200Z,18.00
2017-11-29T08:52:49.701Z,19.60
2017-11-29T08:55:17.230Z,16.37
2017-11-29T08:57:44.731Z,19.10
2017-11-29T09:00:12.238Z,20.10
2017-11-29T09:02:39.753Z,20.67
2017-11-29T09:05:09.398Z,21.57
2017-11-29T09:07:36.932Z,19.20
2017-11-29T09:10:05.216Z,21.40
2017-11-29T09:12:33.942Z,19.70
2017-11-29T09:15:01.483Z,18.50
2017-11-29T09:17:29.822Z,21.80
2017-11-29T09:19:58.113Z,21.50
2017-11-29T09:22:25.619Z,21.67
2017-11-29T09:24:53.134Z,22.93
2017-11-29T09:27:20.617Z,24.80
2017-11-29T09:29:48.142Z,24.43
2017-11-29T09:32:16.432Z,23.63
2017-11-29T09:34:43.945Z,25.13
2017-11-29T09:37:11.461Z,26.60
2017-11-29T09:39:38.964Z,23.63
2017-11-29T09:42:06.478Z,21.20
2017-11-29T09:44:34.790Z,24.13
2017-11-29T09:47:02.308Z,25.77
2017-11-29T09:49:30.114Z,22.13
2017-11-29T09:51:57.882Z,23.23
2017-11-29T09:54:26.305Z,22.87
2017-11-29T09:56:53.820Z,23.70
2017-11-29T09:59:21.583Z,24.50
2017-11-29T10:01:49.143Z,22.90
2017-11-29T10:04:16.882Z,21.20
2017-11-29T10:06:44.394Z,20.07
2017-11-29T10:09:13.357Z,20.27
2017-11-29T10:11:40.861Z,19.20
2017-11-29T10:14:08.412Z,21.23
2017-11-29T10:16:36.591Z,23.27
2017-11-29T10:19:04.099Z,23.73
2017-11-29T10:21:32.438Z,22.20
2017-11-29T10:23:59.944Z,22.90
2017-11-29T10:26:27.456Z,22.87
2017-11-29T10:28:54.966Z,22.60
2017-11-29T10:31:23.976Z,21.93
2017-11-29T10:33:51.777Z,24.17
2017-11-29T10:36:19.608Z,23.73
2017-11-29T10:38:47.128Z,24.70
2017-11-29T10:41:14.640Z,25.90
2017-11-29T10:43:42.147Z,25.00
2017-11-29T10:46:10.592Z,24.87
2017-11-29T10:48:38.111Z,23.60
2017-11-29T10:51:06.624Z,24.13
2017-11-29T10:53:34.429Z,27.23
2017-11-29T11:06:49.909Z,24.80
2017-11-29T11:09:18.300Z,25.20
2017-11-29T11:11:45.874Z,24.47
2017-11-29T11:16:45.916Z,24.00
2017-11-29T11:19:16.810Z,24.77
2017-11-29T11:21:45.419Z,23.80
2017-11-29T11:24:14.008Z,26.33
2017-11-29T11:26:41.533Z,23.60
2017-11-29T11:29:10.464Z,25.43
2017-11-29T11:31:37.997Z,26.43
2017-11-29T11:34:06.748Z,24.00
2017-11-29T11:36:34.268Z,23.10
2017-11-29T11:39:01.791Z,24.87
2017-11-29T11:44:02.509Z,26.30
2017-11-29T11:46:30.274Z,24.80
2017-11-29T11:48:57.780Z,24.13
2017-11-29T11:51:26.245Z,26.23
2017-11-29T11:53:54.537Z,23.17
2017-11-29T11:56:22.089Z,26.53
2017-11-29T11:58:51.253Z,26.63
2017-11-29T12:01:18.886Z,24.57
2017-11-29T12:03:46.438Z,26.47
2017-11-29T12:06:13.953Z,24.23
2017-11-29T12:08:41.471Z,24.07
2017-11-29T12:11:10.129Z,25.07
2017-11-29T12:13:37.955Z,25.00
2017-11-29T12:16:06.576Z,25.93
2017-11-29T12:18:34.096Z,23.80
2017-11-29T12:21:02.420Z,23.57
2017-11-29T12:23:29.952Z,24.83
2017-11-29T12:25:57.689Z,22.80
2017-11-29T12:28:26.787Z,23.40
2017-11-29T12:30:55.074Z,20.57
2017-11-29T12:33:22.584Z,21.53
2017-11-29T12:35:50.125Z,21.43
2017-11-29T12:38:17.638Z,23.27
2017-11-29T12:40:45.917Z,22.07
2017-11-29T12:43:14.206Z,23.03
2017-11-29T12:45:41.704Z,21.77
2017-11-29T12:48:21.900Z,23.17
2017-11-29T12:51:01.893Z,24.63
2017-11-29T12:53:29.404Z,25.33
2017-11-29T12:55:57.679Z,24.97
2017-11-29T12:58:25.954Z,26.97
2017-11-29T13:00:54.227Z,24.57
2017-11-29T13:03:22.508Z,27.37
2017-11-29T13:05:50.036Z,24.40
2017-11-29T13:08:17.546Z,25.23
2017-11-29T13:10:45.059Z,23.30
2017-11-29T13:13:12.601Z,27.40
2017-11-29T13:15:40.087Z,25.87
2017-11-29T13:18:07.579Z,26.30
2017-11-29T13:20:35.093Z,25.90
2017-11-29T13:23:02.600Z,25.70
2017-11-29T13:25:30.116Z,24.70
2017-11-29T13:27:58.427Z,25.03
2017-11-29T13:30:25.981Z,23.97
2017-11-29T13:32:53.515Z,24.77
2017-11-29T13:35:21.008Z,24.43
2017-11-29T13:37:48.519Z,24.90
2017-11-29T13:40:16.038Z,23.27
2017-11-29T13:42:43.567Z,23.77
2017-11-29T13:45:11.836Z,24.37
2017-11-29T13:47:40.119Z,22.57
2017-11-29T13:50:08.385Z,21.60
2017-11-29T13:52:36.664Z,22.33
2017-11-29T13:55:04.967Z,20.60
2017-11-29T13:57:32.467Z,21.40
2017-11-29T14:00:00.049Z,22.10
2017-11-29T14:02:28.371Z,23.10
2017-11-29T14:04:55.874Z,27.30
2017-11-29T14:07:25.171Z,24.30
2017-11-29T14:09:52.659Z,24.17
2017-11-29T14:12:20.178Z,22.17
2017-11-29T14:14:47.669Z,21.93
2017-11-29T14:17:15.995Z,22.67
2017-11-29T14:19:43.549Z,22.30
2017-11-29T14:22:11.052Z,21.37
2017-11-29T14:24:39.325Z,19.80
2017-11-29T14:27:08.441Z,22.70
2017-11-29T14:29:35.929Z,22.50
2017-11-29T14:32:03.430Z,19.87
2017-11-29T14:34:30.920Z,18.30
2017-11-29T14:36:58.424Z,20.80
2017-11-29T14:39:25.956Z,18.00
2017-11-29T14:41:54.220Z,19.33
2017-11-29T14:44:21.757Z,19.40
2017-11-29T14:46:49.248Z,19.07
2017-11-29T14:49:16.766Z,18.50
2017-11-29T14:51:44.283Z,19.73
2017-11-29T14:54:11.866Z,20.00
2017-11-29T14:56:40.150Z,19.20
2017-11-29T14:59:08.430Z,17.70
2017-11-29T15:01:35.945Z,18.27
2017-11-29T15:04:03.448Z,18.50
2017-11-29T15:06:31.715Z,19.23
2017-11-29T15:08:59.998Z,19.07
2017-11-29T15:11:28.294Z,19.40
2017-11-29T15:13:55.810Z,19.80
2017-11-29T15:16:23.332Z,17.60
2017-11-29T15:18:50.823Z,19.67
2017-11-29T15:21:18.342Z,18.23
2017-11-29T15:23:45.845Z,20.73
2017-11-29T15:26:13.358Z,17.57
2017-11-29T15:28:40.887Z,21.70
2017-11-29T15:31:08.398Z,19.40
2017-11-29T15:33:35.909Z,18.63
2017-11-29T15:36:03.415Z,18.33
2017-11-29T15:38:30.917Z,17.20
2017-11-29T15:40:59.192Z,19.33
2017-11-29T15:43:26.696Z,19.30
2017-11-29T15:45:54.200Z,17.07
2017-11-29T15:48:22.455Z,18.17
2017-11-29T15:50:49.969Z,19.07
2017-11-29T15:53:17.462Z,18.13
2017-11-29T15:55:45.515Z,16.70
2017-11-29T15:58:13.178Z,15.60
2017-11-29T16:00:40.675Z,15.97
2017-11-29T16:03:08.925Z,15.47
2017-11-29T16:05:36.440Z,16.07
2017-11-29T16:08:03.938Z,17.03
2017-11-29T16:10:31.676Z,18.07
2017-11-29T16:12:59.183Z,15.90
2017-11-29T16:15:27.460Z,18.07
2017-11-29T16:17:54.983Z,16.70
2017-11-29T16:20:22.473Z,17.07
2017-11-29T16:22:49.940Z,15.97
2017-11-29T16:25:18.240Z,15.67
2017-11-29T16:27:45.729Z,16.60
2017-11-29T16:30:14.143Z,17.43
2017-11-29T16:32:41.646Z,18.47
2017-11-29T16:35:09.162Z,17.63
2017-11-29T16:37:37.436Z,16.97
2017-11-29T16:40:05.691Z,19.87
2017-11-29T16:42:33.968Z,18.10
2017-11-29T16:45:01.468Z,19.73
2017-11-29T16:47:29.730Z,18.97
2017-11-29T16:49:57.247Z,18.73
2017-11-29T16:52:24.767Z,17.80
2017-11-29T16:54:52.266Z,17.77
2017-11-29T16:57:19.776Z,18.00
2017-11-29T16:59:47.267Z,20.17
2017-11-29T17:02:14.765Z,18.53
2017-11-29T17:04:42.276Z,18.20
2017-11-29T17:07:09.776Z,18.80
2017-11-29T17:09:37.272Z,18.70
2017-11-29T17:12:06.101Z,20.40
2017-11-29T17:14:33.828Z,17.80
2017-11-29T17:17:01.351Z,19.63
2017-11-29T17:19:29.811Z,18.03
2017-11-29T17:21:57.362Z,18.80
2017-11-29T17:24:24.871Z,19.57
2017-11-29T17:26:52.395Z,19.70
2017-11-29T17:29:19.918Z,19.23
2017-11-29T17:31:47.450Z,20.80
2017-11-29T17:34:14.967Z,19.67
2017-11-29T17:36:43.272Z,18.53
2017-11-29T17:39:10.800Z,18.90
2017-11-29T17:41:38.308Z,18.73
2017-11-29T17:44:05.802Z,16.70
2017-11-29T17:46:33.298Z,20.07
2017-11-29T17:49:01.568Z,16.90
2017-11-29T17:51:30.726Z,20.17
2017-11-29T17:53:58.223Z,19.20
2017-11-29T17:56:26.490Z,20.13
2017-11-29T17:58:54.743Z,24.30
2017-11-29T18:01:22.265Z,25.27
2017-11-29T18:03:49.754Z,22.67
2017-11-29T18:06:17.261Z,24.37
2017-11-29T18:08:44.780Z,24.17
2017-11-29T18:11:12.275Z,21.27
2017-11-29T18:13:39.808Z,22.93
2017-11-29T18:16:08.074Z,22.77
2017-11-29T18:18:35.608Z,21.67
2017-11-29T18:21:03.106Z,21.07
2017-11-29T18:23:31.460Z,20.00
2017-11-29T18:25:58.990Z,19.40
2017-11-29T18:28:26.478Z,18.23
2017-11-29T18:30:53.992Z,18.27
2017-11-29T18:33:21.501Z,20.50
2017-11-29T18:35:49.767Z,20.60
2017-11-29T18:38:17.276Z,20.70
2017-11-29T18:40:44.786Z,26.17
2017-11-29T18:43:12.267Z,48.70
2017-11-29T18:45:40.537Z,50.10
2017-11-29T18:48:08.817Z,40.30
2017-11-29T18:50:37.080Z,35.03
2017-11-29T18:53:05.229Z,25.90
2017-11-29T18:55:33.597Z,24.03
2017-11-29T18:58:01.114Z,21.70
2017-11-29T19:00:28.645Z,20.97
2017-11-29T19:02:56.130Z,23.83
2017-11-29T19:05:23.623Z,24.33
2017-11-29T19:07:51.129Z,31.93
2017-11-29T19:10:18.648Z,31.20
2017-11-29T19:12:46.148Z,34.57
2017-11-29T19:15:14.433Z,36.03
2017-11-29T19:17:42.700Z,30.47
2017-11-29T19:20:11.006Z,34.13
2017-11-29T19:22:38.523Z,30.10
2017-11-29T19:25:06.777Z,31.40
2017-11-29T19:27:34.286Z,32.13
2017-11-29T19:30:01.789Z,27.20
2017-11-29T19:32:29.290Z,27.23
2017-11-29T19:34:56.804Z,24.60
2017-11-29T19:37:24.300Z,28.63
2017-11-29T19:39:53.309Z,25.17
2017-11-29T19:42:20.841Z,23.93
2017-11-29T19:44:49.119Z,24.97
2017-11-29T19:47:17.513Z,23.00
2017-11-29T19:49:45.689Z,24.40
2017-11-29T19:52:13.193Z,24.97
2017-11-29T19:54:40.741Z,23.67
2017-11-29T19:57:08.595Z,23.60
2017-11-29T19:59:36.114Z,29.30
2017-11-29T20:02:04.374Z,22.20
2017-11-29T20:04:31.868Z,22.07
2017-11-29T20:06:59.376Z,20.60
2017-11-29T20:09:26.885Z,21.77
2017-11-29T20:11:55.178Z,23.33
2017-11-29T20:14:22.680Z,19.87
2017-11-29T20:16:50.956Z,19.73
2017-11-29T20:19:18.493Z,20.57
2017-11-29T20:21:45.992Z,21.90
2017-11-29T20:24:14.286Z,20.60
2017-11-29T20:26:41.794Z,25.13
2017-11-29T20:29:09.338Z,23.10
2017-11-29T20:31:36.828Z,28.37
2017-11-29T20:34:05.108Z,24.97
2017-11-29T20:36:33.381Z,22.57
2017-11-29T20:39:01.656Z,22.57
2017-11-29T20:41:30.043Z,22.87
2017-11-29T20:43:58.325Z,22.53
2017-11-29T20:46:25.841Z,22.90
2017-11-29T20:48:53.338Z,20.37
2017-11-29T20:51:21.648Z,22.47
2017-11-29T20:53:49.177Z,21.07
2017-11-29T20:56:16.808Z,22.23
2017-11-29T20:58:44.308Z,23.93
2017-11-29T21:01:11.805Z,22.67
2017-11-29T21:03:39.315Z,15.80
2017-11-29T21:06:07.531Z,16.47
2017-11-29T21:08:35.029Z,15.23
2017-11-29T21:11:03.340Z,17.80
2017-11-29T21:13:30.913Z,14.93
2017-11-29T21:15:58.398Z,14.03
2017-11-29T21:18:26.694Z,12.30
2017-11-29T21:20:54.985Z,11.80
2017-11-29T21:25:54.990Z,7.70
2017-11-29T21:28:22.468Z,9.17
2017-11-29T21:30:50.757Z,9.67
2017-11-29T21:33:18.264Z,10.30
2017-11-29T21:35:45.755Z,8.90
2017-11-29T21:38:14.024Z,10.13
2017-11-29T21:40:42.320Z,8.40
2017-11-29T21:43:09.825Z,8.80
2017-11-29T21:45:37.337Z,8.10
2017-11-29T21:48:04.820Z,9.80
2017-11-29T21:50:32.316Z,9.20
2017-11-29T21:52:59.811Z,9.23
2017-11-29T21:55:27.317Z,8.20
2017-11-29T21:57:54.814Z,9.30
2017-11-29T22:00:23.079Z,8.60
2017-11-29T22:02:51.354Z,9.03
2017-11-29T22:05:19.612Z,8.50
2017-11-29T22:07:47.126Z,8.00
2017-11-29T22:10:14.620Z,8.63
2017-11-29T22:12:42.118Z,8.03
2017-11-29T22:15:09.613Z,9.13
2017-11-29T22:17:37.108Z,8.37
2017-11-29T22:20:04.619Z,9.67
2017-11-29T22:22:32.127Z,8.00
2017-11-29T22:25:00.419Z,6.53
2017-11-29T22:27:28.738Z,8.27
2017-11-29T22:29:56.219Z,8.60
2017-11-29T22:32:23.718Z,7.93
2017-11-29T22:34:51.972Z,7.63
2017-11-29T22:37:20.223Z,7.77
2017-11-29T22:39:47.725Z,7.50
2017-11-29T22:42:15.213Z,6.70
2017-11-29T22:44:42.707Z,6.50
2017-11-29T22:47:10.216Z,7.50
2017-11-29T22:49:37.706Z,8.17
2017-11-29T22:52:05.202Z,8.07
2017-11-29T22:54:33.481Z,8.50
2017-11-29T22:57:01.753Z,7.83
2017-11-29T22:59:30.306Z,8.10
2017-11-29T23:01:57.843Z,6.10
2017-11-29T23:04:25.339Z,7.10
2017-11-29T23:06:52.847Z,6.80
2017-11-29T23:09:20.347Z,5.53
2017-11-29T23:11:47.848Z,5.70
2017-11-29T23:14:15.399Z,4.83
2017-11-29T23:16:42.885Z,4.97
2017-11-29T23:19:11.126Z,4.97
2017-11-29T23:21:39.482Z,4.57
2017-11-29T23:24:08.790Z,5.20
2017-11-29T23:26:37.052Z,3.80
2017-11-29T23:29:05.320Z,4.30
2017-11-29T23:31:32.818Z,5.63
2017-11-29T23:34:00.813Z,4.50
2017-11-29T23:36:28.327Z,4.10
2017-11-29T23:38:56.575Z,4.60
2017-11-29T23:41:24.100Z,3.80
2017-11-29T23:43:51.624Z,3.70
2017-11-29T23:46:19.147Z,4.00
2017-11-29T23:48:47.008Z,3.53
2017-11-29T23:51:14.512Z,2.97
2017-11-29T23:53:42.016Z,3.70
2017-11-29T23:56:09.614Z,3.50
2017-11-29T23:58:37.889Z,3.20
